sensor_id;sensor_type;location;lat;lon;timestamp;pressure;altitude;pressure_sealevel;temperature;humidity
35704;BME280;21820;51.112;13.762;2023-08-07T00:02:02;98211.63;;;23.74;63.90
35704;BME280;21820;51.112;13.762;2023-08-07T00:04:29;98212.63;;;23.73;63.87
35704;BME280;21820;51.112;13.762;2023-08-07T00:06:54;98216.06;;;23.74;63.67
35704;BME280;21820;51.112;13.762;2023-08-07T00:09:19;98215.25;;;23.73;63.14
35704;BME280;21820;51.112;13.762;2023-08-07T00:11:45;98212.44;;;23.75;63.22
35704;BME280;21820;51.112;13.762;2023-08-07T00:14:10;98207.38;;;23.73;63.64
35704;BME280;21820;51.112;13.762;2023-08-07T00:16:36;98202.28;;;23.72;63.97
35704;BME280;21820;51.112;13.762;2023-08-07T00:19:02;98217.69;;;23.75;63.62
35704;BME280;21820;51.112;13.762;2023-08-07T00:21:28;98209.00;;;23.74;63.62
35704;BME280;21820;51.112;13.762;2023-08-07T00:23:53;98214.06;;;23.76;63.26
35704;BME280;21820;51.112;13.762;2023-08-07T00:26:20;98203.13;;;23.72;63.08
35704;BME280;21820;51.112;13.762;2023-08-07T00:28:46;98194.53;;;23.64;63.90
35704;BME280;21820;51.112;13.762;2023-08-07T00:31:11;98214.25;;;23.74;63.63
35704;BME280;21820;51.112;13.762;2023-08-07T00:33:37;98207.97;;;23.75;63.88
35704;BME280;21820;51.112;13.762;2023-08-07T00:36:03;98198.00;;;23.64;63.64
35704;BME280;21820;51.112;13.762;2023-08-07T00:38:28;98208.38;;;23.72;63.54
35704;BME280;21820;51.112;13.762;2023-08-07T00:40:54;98215.84;;;23.75;63.63
35704;BME280;21820;51.112;13.762;2023-08-07T00:43:19;98213.22;;;23.75;63.40
35704;BME280;21820;51.112;13.762;2023-08-07T00:45:46;98202.22;;;23.65;63.48
35704;BME280;21820;51.112;13.762;2023-08-07T00:48:13;98220.50;;;23.73;63.64
35704;BME280;21820;51.112;13.762;2023-08-07T00:50:41;98221.09;;;23.75;64.20
35704;BME280;21820;51.112;13.762;2023-08-07T00:53:08;98221.28;;;23.74;63.61
35704;BME280;21820;51.112;13.762;2023-08-07T00:55:34;98222.94;;;23.75;63.92
35704;BME280;21820;51.112;13.762;2023-08-07T00:57:59;98208.75;;;23.69;63.93
35704;BME280;21820;51.112;13.762;2023-08-07T01:00:26;98219.50;;;23.74;63.63
35704;BME280;21820;51.112;13.762;2023-08-07T01:02:54;98214.25;;;23.74;64.05
35704;BME280;21820;51.112;13.762;2023-08-07T01:05:19;98215.84;;;23.75;63.97
35704;BME280;21820;51.112;13.762;2023-08-07T01:07:46;98209.00;;;23.74;63.52
35704;BME280;21820;51.112;13.762;2023-08-07T01:10:12;98210.00;;;23.73;63.30
35704;BME280;21820;51.112;13.762;2023-08-07T01:12:47;98217.69;;;23.75;64.39
35704;BME280;21820;51.112;13.762;2023-08-07T01:15:16;98207.38;;;23.73;63.73
35704;BME280;21820;51.112;13.762;2023-08-07T01:17:46;98210.81;;;23.74;64.10
35704;BME280;21820;51.112;13.762;2023-08-07T01:20:11;98202.00;;;23.81;64.38
35704;BME280;21820;51.112;13.762;2023-08-07T01:22:37;98202.75;;;23.75;63.53
35704;BME280;21820;51.112;13.762;2023-08-07T01:25:02;98201.13;;;23.74;63.89
35704;BME280;21820;51.112;13.762;2023-08-07T01:27:46;98194.88;;;23.75;64.12
35704;BME280;21820;51.112;13.762;2023-08-07T01:30:40;98200.50;;;23.72;64.01
35704;BME280;21820;51.112;13.762;2023-08-07T01:36:29;98203.75;;;23.74;63.74
35704;BME280;21820;51.112;13.762;2023-08-07T01:38:59;98217.69;;;23.75;63.76
35704;BME280;21820;51.112;13.762;2023-08-07T01:41:25;98209.19;;;23.73;63.34
35704;BME280;21820;51.112;13.762;2023-08-07T01:43:51;98209.19;;;23.73;63.25
35704;BME280;21820;51.112;13.762;2023-08-07T01:46:17;98210.00;;;23.73;63.96
35704;BME280;21820;51.112;13.762;2023-08-07T01:48:43;98204.75;;;23.73;64.06
35704;BME280;21820;51.112;13.762;2023-08-07T01:51:08;98215.25;;;23.73;63.66
35704;BME280;21820;51.112;13.762;2023-08-07T01:53:34;98217.88;;;23.73;63.76
35704;BME280;21820;51.112;13.762;2023-08-07T01:55:59;98220.50;;;23.73;63.98
35704;BME280;21820;51.112;13.762;2023-08-07T01:58:24;98212.63;;;23.73;64.03
35704;BME280;21820;51.112;13.762;2023-08-07T02:00:49;98217.44;;;23.70;63.80
35704;BME280;21820;51.112;13.762;2023-08-07T02:03:15;98202.59;;;23.62;64.03
35704;BME280;21820;51.112;13.762;2023-08-07T02:05:40;98233.63;;;23.73;63.98
35704;BME280;21820;51.112;13.762;2023-08-07T02:08:05;98228.38;;;23.73;63.38
35704;BME280;21820;51.112;13.762;2023-08-07T02:10:31;98229.34;;;23.72;63.51
35704;BME280;21820;51.112;13.762;2023-08-07T02:12:57;98229.34;;;23.72;63.93
35704;BME280;21820;51.112;13.762;2023-08-07T02:15:23;98231.06;;;23.80;63.84
35704;BME280;21820;51.112;13.762;2023-08-07T02:17:48;98221.28;;;23.74;63.20
35704;BME280;21820;51.112;13.762;2023-08-07T02:20:14;98225.75;;;23.73;63.30
35704;BME280;21820;51.112;13.762;2023-08-07T02:22:39;98226.72;;;23.72;63.23
35704;BME280;21820;51.112;13.762;2023-08-07T02:25:05;98227.56;;;23.73;63.79
35704;BME280;21820;51.112;13.762;2023-08-07T02:27:30;98231.00;;;23.73;63.90
35704;BME280;21820;51.112;13.762;2023-08-07T02:29:56;98231.78;;;23.74;63.37
35704;BME280;21820;51.112;13.762;2023-08-07T02:32:21;98233.63;;;23.73;63.34
35704;BME280;21820;51.112;13.762;2023-08-07T02:34:47;98209.69;;;23.62;63.18
35704;BME280;21820;51.112;13.762;2023-08-07T02:37:12;98228.38;;;23.73;63.38
35704;BME280;21820;51.112;13.762;2023-08-07T02:39:38;98228.53;;;23.72;63.98
35704;BME280;21820;51.112;13.762;2023-08-07T02:42:03;98228.38;;;23.73;63.31
35704;BME280;21820;51.112;13.762;2023-08-07T02:44:29;98234.41;;;23.74;63.38
35704;BME280;21820;51.112;13.762;2023-08-07T02:46:54;98226.91;;;23.71;63.02
35704;BME280;21820;51.112;13.762;2023-08-07T02:49:19;98231.00;;;23.73;63.95
35704;BME280;21820;51.112;13.762;2023-08-07T02:51:45;98229.34;;;23.72;63.38
35704;BME280;21820;51.112;13.762;2023-08-07T02:54:10;98214.75;;;23.63;63.33
35704;BME280;21820;51.112;13.762;2023-08-07T02:56:35;98227.75;;;23.71;63.56
35704;BME280;21820;51.112;13.762;2023-08-07T02:59:01;98230.19;;;23.73;63.33
35704;BME280;21820;51.112;13.762;2023-08-07T03:01:27;98231.00;;;23.73;63.94
35704;BME280;21820;51.112;13.762;2023-08-07T03:03:53;98240.50;;;23.74;63.48
35704;BME280;21820;51.112;13.762;2023-08-07T03:06:18;98257.25;;;23.73;63.69
35704;BME280;21820;51.112;13.762;2023-08-07T03:08:44;98265.13;;;23.73;64.08
35704;BME280;21820;51.112;13.762;2023-08-07T03:11:09;98266.09;;;23.72;63.99
35704;BME280;21820;51.112;13.762;2023-08-07T03:13:34;98270.38;;;23.73;63.97
35704;BME280;21820;51.112;13.762;2023-08-07T03:16:02;98278.25;;;23.73;63.79
35704;BME280;21820;51.112;13.762;2023-08-07T03:18:28;98273.16;;;23.72;64.13
35704;BME280;21820;51.112;13.762;2023-08-07T03:20:55;98290.72;;;23.71;63.69
35704;BME280;21820;51.112;13.762;2023-08-07T03:23:21;98297.47;;;23.80;64.38
35704;BME280;21820;51.112;13.762;2023-08-07T03:25:46;98294.00;;;23.73;63.30
35704;BME280;21820;51.112;13.762;2023-08-07T03:28:11;98286.25;;;23.72;63.64
35704;BME280;21820;51.112;13.762;2023-08-07T03:30:37;98300.03;;;23.74;64.06
35704;BME280;21820;51.112;13.762;2023-08-07T03:33:03;98287.00;;;23.66;63.67
35704;BME280;21820;51.112;13.762;2023-08-07T03:35:28;98308.09;;;23.72;63.33
35704;BME280;21820;51.112;13.762;2023-08-07T03:37:53;98308.91;;;23.73;63.67
35704;BME280;21820;51.112;13.762;2023-08-07T03:40:19;98309.72;;;23.73;63.33
35704;BME280;21820;51.112;13.762;2023-08-07T03:42:44;98321.22;;;23.72;64.06
35704;BME280;21820;51.112;13.762;2023-08-07T03:45:09;98318.59;;;23.72;63.00
35704;BME280;21820;51.112;13.762;2023-08-07T03:47:35;98320.38;;;23.72;63.32
35704;BME280;21820;51.112;13.762;2023-08-07T03:50:01;98314.34;;;23.71;63.43
35704;BME280;21820;51.112;13.762;2023-08-07T03:52:26;98316.34;;;23.69;63.86
35704;BME280;21820;51.112;13.762;2023-08-07T03:54:52;98317.75;;;23.72;63.40
35704;BME280;21820;51.112;13.762;2023-08-07T03:57:17;98322.22;;;23.71;63.27
35704;BME280;21820;51.112;13.762;2023-08-07T03:59:43;98317.75;;;23.72;63.12
35704;BME280;21820;51.112;13.762;2023-08-07T04:02:08;98323.00;;;23.72;63.91
35704;BME280;21820;51.112;13.762;2023-08-07T04:04:34;98327.28;;;23.73;64.00
35704;BME280;21820;51.112;13.762;2023-08-07T04:06:59;98317.69;;;23.65;63.28
35704;BME280;21820;51.112;13.762;2023-08-07T04:09:24;98310.38;;;23.61;63.96
35704;BME280;21820;51.112;13.762;2023-08-07T04:11:50;98334.31;;;23.72;63.42
35704;BME280;21820;51.112;13.762;2023-08-07T04:14:15;98336.94;;;23.72;63.57
35704;BME280;21820;51.112;13.762;2023-08-07T04:16:40;98343.22;;;23.71;63.85
35704;BME280;21820;51.112;13.762;2023-08-07T04:19:06;98344.00;;;23.72;63.98
35704;BME280;21820;51.112;13.762;2023-08-07T04:21:32;98334.31;;;23.72;63.52
35704;BME280;21820;51.112;13.762;2023-08-07T04:23:58;98340.41;;;23.73;63.84
35704;BME280;21820;51.112;13.762;2023-08-07T04:26:25;98343.22;;;23.71;63.19
35704;BME280;21820;51.112;13.762;2023-08-07T04:28:51;98337.78;;;23.73;63.53
35704;BME280;21820;51.112;13.762;2023-08-07T04:31:16;98344.81;;;23.72;63.22
35704;BME280;21820;51.112;13.762;2023-08-07T04:33:42;98351.88;;;23.72;63.32
35704;BME280;21820;51.112;13.762;2023-08-07T04:36:07;98360.56;;;23.72;63.43
35704;BME280;21820;51.112;13.762;2023-08-07T04:38:32;98356.16;;;23.73;63.37
35704;BME280;21820;51.112;13.762;2023-08-07T04:40:58;98366.66;;;23.73;63.28
35704;BME280;21820;51.112;13.762;2023-08-07T04:43:23;98364.03;;;23.73;63.66
35704;BME280;21820;51.112;13.762;2023-08-07T04:45:48;98353.91;;;23.70;63.29
35704;BME280;21820;51.112;13.762;2023-08-07T04:48:14;98358.59;;;23.74;63.65
35704;BME280;21820;51.112;13.762;2023-08-07T04:50:40;98362.22;;;23.73;63.74
35704;BME280;21820;51.112;13.762;2023-08-07T04:53:06;98362.56;;;23.70;63.27
35704;BME280;21820;51.112;13.762;2023-08-07T04:55:32;98347.75;;;23.63;63.49
35704;BME280;21820;51.112;13.762;2023-08-07T04:57:57;98362.22;;;23.73;63.59
35704;BME280;21820;51.112;13.762;2023-08-07T05:00:24;98366.66;;;23.73;63.59
35704;BME280;21820;51.112;13.762;2023-08-07T05:02:49;98365.81;;;23.72;63.60
35704;BME280;21820;51.112;13.762;2023-08-07T05:05:15;98372.72;;;23.73;63.41
35704;BME280;21820;51.112;13.762;2023-08-07T05:07:41;98369.63;;;23.70;64.05
35704;BME280;21820;51.112;13.762;2023-08-07T05:10:08;98363.31;;;23.64;64.06
35704;BME280;21820;51.112;13.762;2023-08-07T05:12:34;98377.31;;;23.71;63.84
35704;BME280;21820;51.112;13.762;2023-08-07T05:14:59;98376.31;;;23.72;63.84
35704;BME280;21820;51.112;13.762;2023-08-07T05:17:24;98377.13;;;23.73;63.51
35704;BME280;21820;51.112;13.762;2023-08-07T05:19:50;98383.56;;;23.70;63.52
35704;BME280;21820;51.112;13.762;2023-08-07T05:22:15;98383.22;;;23.73;63.28
35704;BME280;21820;51.112;13.762;2023-08-07T05:24:40;98390.06;;;23.74;63.32
35704;BME280;21820;51.112;13.762;2023-08-07T05:27:09;98393.72;;;23.73;63.47
35704;BME280;21820;51.112;13.762;2023-08-07T05:29:35;98381.94;;;23.69;63.27
35704;BME280;21820;51.112;13.762;2023-08-07T05:32:08;98381.56;;;23.72;63.82
35704;BME280;21820;51.112;13.762;2023-08-07T05:34:33;98387.19;;;23.69;63.87
35704;BME280;21820;51.112;13.762;2023-08-07T05:36:58;98402.56;;;23.72;63.33
35704;BME280;21820;51.112;13.762;2023-08-07T05:39:24;98398.13;;;23.73;63.54
35704;BME280;21820;51.112;13.762;2023-08-07T05:41:49;98399.94;;;23.72;63.71
35704;BME280;21820;51.112;13.762;2023-08-07T05:44:16;98400.94;;;23.71;63.84
35704;BME280;21820;51.112;13.762;2023-08-07T05:46:41;98400.94;;;23.71;63.59
35704;BME280;21820;51.112;13.762;2023-08-07T05:49:06;98410.44;;;23.72;63.66
35704;BME280;21820;51.112;13.762;2023-08-07T05:51:31;98418.31;;;23.72;63.60
35704;BME280;21820;51.112;13.762;2023-08-07T05:53:57;98416.69;;;23.71;63.28
35704;BME280;21820;51.112;13.762;2023-08-07T05:56:22;98412.59;;;23.69;63.51
35704;BME280;21820;51.112;13.762;2023-08-07T05:58:48;98421.13;;;23.71;63.43
35704;BME280;21820;51.112;13.762;2023-08-07T06:01:13;98416.69;;;23.71;63.21
35704;BME280;21820;51.112;13.762;2023-08-07T06:03:41;98413.06;;;23.72;63.82
35704;BME280;21820;51.112;13.762;2023-08-07T06:06:07;98420.94;;;23.72;63.42
35704;BME280;21820;51.112;13.762;2023-08-07T06:08:32;98421.94;;;23.71;63.90
35704;BME280;21820;51.112;13.762;2023-08-07T06:10:58;98425.91;;;23.67;63.22
35704;BME280;21820;51.112;13.762;2023-08-07T06:13:23;98432.44;;;23.71;63.88
35704;BME280;21820;51.112;13.762;2023-08-07T06:15:48;98430.19;;;23.68;63.61
35704;BME280;21820;51.112;13.762;2023-08-07T06:18:14;98434.41;;;23.69;63.91
35704;BME280;21820;51.112;13.762;2023-08-07T06:20:39;98443.91;;;23.70;63.20
35704;BME280;21820;51.112;13.762;2023-08-07T06:23:04;98453.63;;;23.70;63.58
35704;BME280;21820;51.112;13.762;2023-08-07T06:25:29;98459.66;;;23.70;63.26
35704;BME280;21820;51.112;13.762;2023-08-07T06:27:55;98462.28;;;23.70;63.60
35704;BME280;21820;51.112;13.762;2023-08-07T06:30:20;98457.03;;;23.70;63.70
35704;BME280;21820;51.112;13.762;2023-08-07T06:32:45;98458.88;;;23.70;63.91
35704;BME280;21820;51.112;13.762;2023-08-07T06:35:11;98463.28;;;23.69;63.23
35704;BME280;21820;51.112;13.762;2023-08-07T06:37:36;98472.78;;;23.70;63.82
35704;BME280;21820;51.112;13.762;2023-08-07T06:40:02;98474.44;;;23.71;63.54
35704;BME280;21820;51.112;13.762;2023-08-07T06:42:27;98471.97;;;23.70;63.10
35704;BME280;21820;51.112;13.762;2023-08-07T06:44:53;98479.03;;;23.69;63.34
35704;BME280;21820;51.112;13.762;2023-08-07T06:47:18;98454.88;;;23.59;63.90
35704;BME280;21820;51.112;13.762;2023-08-07T06:49:43;98477.22;;;23.70;63.34
35704;BME280;21820;51.112;13.762;2023-08-07T06:52:09;98476.41;;;23.69;63.23
35704;BME280;21820;51.112;13.762;2023-08-07T06:54:34;98482.47;;;23.70;63.60
35704;BME280;21820;51.112;13.762;2023-08-07T06:56:59;98485.09;;;23.70;63.58
35704;BME280;21820;51.112;13.762;2023-08-07T06:59:25;98484.47;;;23.68;63.59
35704;BME280;21820;51.112;13.762;2023-08-07T07:01:50;98491.16;;;23.70;63.23
35704;BME280;21820;51.112;13.762;2023-08-07T07:04:16;98494.59;;;23.71;63.19
35704;BME280;21820;51.112;13.762;2023-08-07T07:06:41;98487.72;;;23.70;63.93
35704;BME280;21820;51.112;13.762;2023-08-07T07:09:06;98497.41;;;23.69;63.57
35704;BME280;21820;51.112;13.762;2023-08-07T07:11:32;98491.16;;;23.70;63.92
35704;BME280;21820;51.112;13.762;2023-08-07T07:13:57;98498.22;;;23.70;63.83
35704;BME280;21820;51.112;13.762;2023-08-07T07:16:23;98492.16;;;23.69;63.26
35704;BME280;21820;51.112;13.762;2023-08-07T07:18:49;98494.78;;;23.69;63.50
35704;BME280;21820;51.112;13.762;2023-08-07T07:21:15;98495.78;;;23.68;63.68
35704;BME280;21820;51.112;13.762;2023-08-07T07:23:40;98497.22;;;23.71;64.02
35704;BME280;21820;51.112;13.762;2023-08-07T07:26:06;98499.03;;;23.70;63.59
35704;BME280;21820;51.112;13.762;2023-08-07T07:28:31;98493.78;;;23.70;63.28
35704;BME280;21820;51.112;13.762;2023-08-07T07:30:57;98492.16;;;23.69;63.94
35704;BME280;21820;51.112;13.762;2023-08-07T07:33:22;98499.84;;;23.71;63.76
35704;BME280;21820;51.112;13.762;2023-08-07T07:35:48;98497.41;;;23.69;63.55
35704;BME280;21820;51.112;13.762;2023-08-07T07:38:13;98510.53;;;23.69;63.66
35704;BME280;21820;51.112;13.762;2023-08-07T07:40:40;98511.53;;;23.68;63.86
35704;BME280;21820;51.112;13.762;2023-08-07T07:43:06;98518.75;;;23.66;63.45
35704;BME280;21820;51.112;13.762;2023-08-07T07:45:31;98521.03;;;23.69;63.91
35704;BME280;21820;51.112;13.762;2023-08-07T07:47:58;98524.00;;;23.66;63.94
35704;BME280;21820;51.112;13.762;2023-08-07T07:50:24;98526.63;;;23.66;63.18
35704;BME280;21820;51.112;13.762;2023-08-07T07:52:49;98518.84;;;23.58;63.60
35704;BME280;21820;51.112;13.762;2023-08-07T07:55:15;98530.88;;;23.67;63.93
35704;BME280;21820;51.112;13.762;2023-08-07T07:57:40;98539.56;;;23.68;63.39
35704;BME280;21820;51.112;13.762;2023-08-07T08:00:06;98539.75;;;23.66;63.87
35704;BME280;21820;51.112;13.762;2023-08-07T08:02:36;98545.00;;;23.66;63.99
35704;BME280;21820;51.112;13.762;2023-08-07T08:05:02;98552.88;;;23.66;63.72
35704;BME280;21820;51.112;13.762;2023-08-07T08:07:27;98552.69;;;23.68;63.92
35704;BME280;21820;51.112;13.762;2023-08-07T08:09:52;98551.88;;;23.67;63.64
35704;BME280;21820;51.112;13.762;2023-08-07T08:12:18;98533.13;;;23.56;63.65
35704;BME280;21820;51.112;13.762;2023-08-07T08:14:43;98558.75;;;23.68;63.57
35704;BME280;21820;51.112;13.762;2023-08-07T08:17:08;98543.25;;;23.59;63.81
35704;BME280;21820;51.112;13.762;2023-08-07T08:19:34;98558.41;;;23.71;63.25
35704;BME280;21820;51.112;13.762;2023-08-07T08:22:00;98559.19;;;23.72;63.16
35704;BME280;21820;51.112;13.762;2023-08-07T08:24:25;98560.03;;;23.72;63.52
35704;BME280;21820;51.112;13.762;2023-08-07T08:26:50;98577.56;;;23.72;63.82
35704;BME280;21820;51.112;13.762;2023-08-07T08:29:16;98578.09;;;23.67;63.33
35704;BME280;21820;51.112;13.762;2023-08-07T08:31:41;98569.25;;;23.68;63.72
35704;BME280;21820;51.112;13.762;2023-08-07T08:34:06;98577.94;;;23.69;63.62
35704;BME280;21820;51.112;13.762;2023-08-07T08:36:32;98574.50;;;23.68;63.69
35704;BME280;21820;51.112;13.762;2023-08-07T08:38:57;98573.69;;;23.68;64.04
35704;BME280;21820;51.112;13.762;2023-08-07T08:41:23;98578.94;;;23.68;63.62
35704;BME280;21820;51.112;13.762;2023-08-07T08:43:51;98578.56;;;23.71;64.22
35704;BME280;21820;51.112;13.762;2023-08-07T08:46:20;98583.00;;;23.70;63.37
35704;BME280;21820;51.112;13.762;2023-08-07T08:48:50;98573.41;;;23.63;64.35
35704;BME280;21820;51.112;13.762;2023-08-07T08:51:17;98568.69;;;23.58;63.95
35704;BME280;21820;51.112;13.762;2023-08-07T08:53:45;98591.22;;;23.67;63.98
35704;BME280;21820;51.112;13.762;2023-08-07T08:56:11;98579.13;;;23.66;63.90
35704;BME280;21820;51.112;13.762;2023-08-07T08:58:37;98586.81;;;23.68;63.52
35704;BME280;21820;51.112;13.762;2023-08-07T09:01:03;98599.38;;;23.72;64.08
35704;BME280;21820;51.112;13.762;2023-08-07T09:03:29;98598.13;;;23.68;63.45
35704;BME280;21820;51.112;13.762;2023-08-07T09:05:58;98596.47;;;23.67;64.38
35704;BME280;21820;51.112;13.762;2023-08-07T09:08:26;98596.66;;;23.66;63.97
35704;BME280;21820;51.112;13.762;2023-08-07T09:10:54;98581.81;;;23.58;63.37
35704;BME280;21820;51.112;13.762;2023-08-07T09:13:23;98588.59;;;23.67;63.92
35704;BME280;21820;51.112;13.762;2023-08-07T09:15:50;98604.34;;;23.67;63.59
35704;BME280;21820;51.112;13.762;2023-08-07T09:18:16;98595.84;;;23.65;64.15
35704;BME280;21820;51.112;13.762;2023-08-07T09:20:42;98607.97;;;23.66;63.37
35704;BME280;21820;51.112;13.762;2023-08-07T09:23:07;98587.97;;;23.65;63.89
35704;BME280;21820;51.112;13.762;2023-08-07T09:25:34;98603.56;;;23.67;63.65
35704;BME280;21820;51.112;13.762;2023-08-07T09:28:04;98599.09;;;23.67;64.42
35704;BME280;21820;51.112;13.762;2023-08-07T09:30:30;98600.94;;;23.67;63.30
35704;BME280;21820;51.112;13.762;2023-08-07T09:32:59;98606.81;;;23.69;64.08
35704;BME280;21820;51.112;13.762;2023-08-07T09:35:26;98612.06;;;23.69;63.49
35704;BME280;21820;51.112;13.762;2023-08-07T09:37:51;98606.44;;;23.72;63.59
35704;BME280;21820;51.112;13.762;2023-08-07T09:40:18;98593.50;;;23.70;63.37
35704;BME280;21820;51.112;13.762;2023-08-07T09:42:43;98589.06;;;23.71;63.13
35704;BME280;21820;51.112;13.762;2023-08-07T09:45:29;98589.72;;;23.73;64.39
35704;BME280;21820;51.112;13.762;2023-08-07T09:48:00;98586.28;;;23.72;63.50
35704;BME280;21820;51.112;13.762;2023-08-07T09:50:26;98589.91;;;23.71;63.26
35704;BME280;21820;51.112;13.762;2023-08-07T09:52:52;98598.75;;;23.70;63.11
35704;BME280;21820;51.112;13.762;2023-08-07T09:55:18;98598.75;;;23.70;63.18
35704;BME280;21820;51.112;13.762;2023-08-07T09:57:44;98598.13;;;23.68;63.41
35704;BME280;21820;51.112;13.762;2023-08-07T10:00:10;98598.75;;;23.70;63.03
35704;BME280;21820;51.112;13.762;2023-08-07T10:02:37;98606.81;;;23.69;63.08
35704;BME280;21820;51.112;13.762;2023-08-07T10:05:04;98606.81;;;23.69;63.83
35704;BME280;21820;51.112;13.762;2023-08-07T10:07:31;98605.19;;;23.68;63.33
35704;BME280;21820;51.112;13.762;2023-08-07T10:09:58;98600.75;;;23.68;63.66
35704;BME280;21820;51.112;13.762;2023-08-07T10:12:23;98605.19;;;23.68;64.04
35704;BME280;21820;51.112;13.762;2023-08-07T10:14:50;98604.34;;;23.67;63.52
35704;BME280;21820;51.112;13.762;2023-08-07T10:17:16;98614.84;;;23.67;63.48
35704;BME280;21820;51.112;13.762;2023-08-07T10:19:43;98615.69;;;23.68;63.72
35704;BME280;21820;51.112;13.762;2023-08-07T10:22:09;98612.06;;;23.69;63.73
35704;BME280;21820;51.112;13.762;2023-08-07T10:24:36;98608.63;;;23.68;64.32
35704;BME280;21820;51.112;13.762;2023-08-07T10:27:06;98625.34;;;23.67;64.10
35704;BME280;21820;51.112;13.762;2023-08-07T10:29:34;98616.50;;;23.68;63.87
35704;BME280;21820;51.112;13.762;2023-08-07T10:32:01;98619.13;;;23.68;63.60
35704;BME280;21820;51.112;13.762;2023-08-07T10:34:33;98628.63;;;23.69;64.48
35704;BME280;21820;51.112;13.762;2023-08-07T10:36:59;98629.44;;;23.70;63.92
35704;BME280;21820;51.112;13.762;2023-08-07T10:39:24;98630.25;;;23.70;63.81
35704;BME280;21820;51.112;13.762;2023-08-07T10:41:53;98614.50;;;23.70;64.37
35704;BME280;21820;51.112;13.762;2023-08-07T10:44:27;98601.72;;;23.67;64.42
35704;BME280;21820;51.112;13.762;2023-08-07T10:46:57;98618.13;;;23.69;63.54
35704;BME280;21820;51.112;13.762;2023-08-07T10:49:41;98606.63;;;23.70;63.95
35704;BME280;21820;51.112;13.762;2023-08-07T10:52:12;98627.00;;;23.68;64.37
35704;BME280;21820;51.112;13.762;2023-08-07T10:54:40;98619.81;;;23.62;63.96
35704;BME280;21820;51.112;13.762;2023-08-07T10:57:10;98633.88;;;23.69;64.01
35704;BME280;21820;51.112;13.762;2023-08-07T10:59:37;98630.25;;;23.70;63.43
35704;BME280;21820;51.112;13.762;2023-08-07T11:02:07;98635.84;;;23.67;63.84
35704;BME280;21820;51.112;13.762;2023-08-07T11:04:36;98632.25;;;23.68;63.71
35704;BME280;21820;51.112;13.762;2023-08-07T11:07:02;98645.97;;;23.70;63.51
35704;BME280;21820;51.112;13.762;2023-08-07T11:09:28;98638.13;;;23.70;63.77
35704;BME280;21820;51.112;13.762;2023-08-07T11:11:53;98637.13;;;23.71;63.85
35704;BME280;21820;51.112;13.762;2023-08-07T11:14:19;98631.06;;;23.71;64.00
35704;BME280;21820;51.112;13.762;2023-08-07T11:16:47;98624.00;;;23.71;63.42
35704;BME280;21820;51.112;13.762;2023-08-07T11:19:17;98618.94;;;23.70;63.76
35704;BME280;21820;51.112;13.762;2023-08-07T11:21:43;98633.88;;;23.69;63.63
35704;BME280;21820;51.112;13.762;2023-08-07T11:24:13;98630.25;;;23.70;63.75
35704;BME280;21820;51.112;13.762;2023-08-07T11:26:39;98612.88;;;23.69;63.91
35704;BME280;21820;51.112;13.762;2023-08-07T11:29:04;98629.44;;;23.70;63.30
35704;BME280;21820;51.112;13.762;2023-08-07T11:31:29;98649.44;;;23.71;63.31
35704;BME280;21820;51.112;13.762;2023-08-07T11:33:57;98648.59;;;23.70;63.85
35704;BME280;21820;51.112;13.762;2023-08-07T11:36:23;98657.31;;;23.71;63.99
35704;BME280;21820;51.112;13.762;2023-08-07T11:38:49;98659.06;;;23.78;64.16
35704;BME280;21820;51.112;13.762;2023-08-07T11:41:16;98658.78;;;23.73;63.75
35704;BME280;21820;51.112;13.762;2023-08-07T11:43:42;98660.59;;;23.73;64.04
35704;BME280;21820;51.112;13.762;2023-08-07T11:46:09;98659.75;;;23.72;63.99
35704;BME280;21820;51.112;13.762;2023-08-07T11:48:37;98681.94;;;23.70;63.44
35704;BME280;21820;51.112;13.762;2023-08-07T11:51:04;98675.84;;;23.69;63.74
35704;BME280;21820;51.112;13.762;2023-08-07T11:53:32;98669.59;;;23.70;64.28
35704;BME280;21820;51.112;13.762;2023-08-07T11:56:00;98669.59;;;23.70;63.45
35704;BME280;21820;51.112;13.762;2023-08-07T11:58:28;98671.44;;;23.70;63.57
35704;BME280;21820;51.112;13.762;2023-08-07T12:00:58;98670.59;;;23.69;63.24
35704;BME280;21820;51.112;13.762;2023-08-07T12:03:35;98671.31;;;23.63;64.43
35704;BME280;21820;51.112;13.762;2023-08-07T12:06:04;98677.47;;;23.70;63.78
35704;BME280;21820;51.112;13.762;2023-08-07T12:08:34;98679.13;;;23.71;63.81
35704;BME280;21820;51.112;13.762;2023-08-07T12:11:04;98672.22;;;23.70;63.79
35704;BME280;21820;51.112;13.762;2023-08-07T12:13:30;98670.59;;;23.69;64.00
35704;BME280;21820;51.112;13.762;2023-08-07T12:15:57;98685.34;;;23.70;63.58
35704;BME280;21820;51.112;13.762;2023-08-07T12:18:23;98676.50;;;23.71;63.41
35704;BME280;21820;51.112;13.762;2023-08-07T12:20:52;98674.84;;;23.70;64.02
35704;BME280;21820;51.112;13.762;2023-08-07T12:23:21;98666.19;;;23.70;63.62
35704;BME280;21820;51.112;13.762;2023-08-07T12:25:47;98660.66;;;23.65;63.93
35704;BME280;21820;51.112;13.762;2023-08-07T12:28:13;98661.72;;;23.70;64.00
35704;BME280;21820;51.112;13.762;2023-08-07T12:30:38;98664.34;;;23.70;63.94
35704;BME280;21820;51.112;13.762;2023-08-07T12:33:04;98660.13;;;23.69;63.37
35704;BME280;21820;51.112;13.762;2023-08-07T12:35:31;98657.41;;;23.77;64.16
35704;BME280;21820;51.112;13.762;2023-08-07T12:37:56;98653.94;;;23.62;62.93
35704;BME280;21820;51.112;13.762;2023-08-07T12:40:22;98666.97;;;23.70;63.53
35704;BME280;21820;51.112;13.762;2023-08-07T12:42:51;98673.22;;;23.69;63.33
35704;BME280;21820;51.112;13.762;2023-08-07T12:45:17;98673.22;;;23.69;63.88
35704;BME280;21820;51.112;13.762;2023-08-07T12:47:44;98672.22;;;23.70;63.68
35704;BME280;21820;51.112;13.762;2023-08-07T12:50:09;98671.63;;;23.68;63.71